createdAt,value
2018-10-16T00:00:43.123Z,8.28
2018-10-16T00:01:43.160Z,8.25
2018-10-16T00:02:43.200Z,8.25
2018-10-16T00:03:43.238Z,8.22
2018-10-16T00:04:43.281Z,8.20
2018-10-16T00:05:43.315Z,8.22
2018-10-16T00:06:43.355Z,8.20
2018-10-16T00:07:43.393Z,8.23
2018-10-16T00:08:43.444Z,8.11
2018-10-16T00:09:43.477Z,8.20
2018-10-16T00:10:43.511Z,8.19
2018-10-16T00:11:43.551Z,8.18
2018-10-16T00:12:43.589Z,8.12
2018-10-16T00:13:43.627Z,8.22
2018-10-16T00:14:43.665Z,8.16
2018-10-16T00:15:43.707Z,8.12
2018-10-16T00:16:43.743Z,8.12
2018-10-16T00:17:43.788Z,8.18
2018-10-16T00:18:43.824Z,8.15
2018-10-16T00:19:43.866Z,8.15
2018-10-16T00:20:43.899Z,8.18
2018-10-16T00:21:43.939Z,8.16
2018-10-16T00:22:43.977Z,8.18
2018-10-16T00:23:44.015Z,8.10
2018-10-16T00:24:44.053Z,8.15
2018-10-16T00:25:44.093Z,8.12
2018-10-16T00:26:44.132Z,8.08
2018-10-16T00:27:44.170Z,8.16
2018-10-16T00:28:44.210Z,8.12
2018-10-16T00:29:44.247Z,8.12
2018-10-16T00:30:44.286Z,8.15
2018-10-16T00:31:44.325Z,8.08
2018-10-16T00:32:44.493Z,8.10
2018-10-16T00:33:44.401Z,8.15
2018-10-16T00:34:44.440Z,8.08
2018-10-16T00:35:44.479Z,8.02
2018-10-16T00:36:44.519Z,8.07
2018-10-16T00:37:44.561Z,8.00
2018-10-16T00:38:44.597Z,8.07
2018-10-16T00:39:44.634Z,8.02
2018-10-16T00:40:44.675Z,8.02
2018-10-16T00:41:44.711Z,8.00
2018-10-16T00:42:44.749Z,8.07
2018-10-16T00:43:44.856Z,8.04
2018-10-16T00:44:44.828Z,7.95
2018-10-16T00:45:44.870Z,8.05
2018-10-16T00:46:44.906Z,7.95
2018-10-16T00:47:44.943Z,8.00
2018-10-16T00:48:44.989Z,8.04
2018-10-16T00:49:45.021Z,8.01
2018-10-16T00:50:45.060Z,7.98
2018-10-16T00:51:45.105Z,8.05
2018-10-16T00:52:45.137Z,8.02
2018-10-16T00:53:45.176Z,8.04
2018-10-16T00:54:45.261Z,8.02
2018-10-16T00:55:45.252Z,8.02
2018-10-16T00:56:45.293Z,8.01
2018-10-16T00:57:45.389Z,7.92
2018-10-16T00:58:45.369Z,7.97
2018-10-16T00:59:45.409Z,7.98
2018-10-16T01:00:45.447Z,7.89
2018-10-16T01:01:45.484Z,7.90
2018-10-16T01:02:45.525Z,7.93
2018-10-16T01:03:45.572Z,7.85
2018-10-16T01:04:45.602Z,7.93
2018-10-16T01:05:45.645Z,7.83
2018-10-16T01:06:45.681Z,7.89
2018-10-16T01:07:45.722Z,7.85
2018-10-16T01:08:45.761Z,7.85
2018-10-16T01:09:45.795Z,7.87
2018-10-16T01:10:45.836Z,7.87
2018-10-16T01:11:45.874Z,7.85
2018-10-16T01:12:45.913Z,7.80
2018-10-16T01:13:45.960Z,7.82
2018-10-16T01:14:45.996Z,7.85
2018-10-16T01:15:46.028Z,7.87
2018-10-16T01:16:46.067Z,7.87
2018-10-16T01:17:46.104Z,7.85
2018-10-16T01:18:46.144Z,7.75
2018-10-16T01:19:46.217Z,7.80
2018-10-16T01:20:46.225Z,7.85
2018-10-16T01:21:46.261Z,7.82
2018-10-16T01:22:46.299Z,7.86
2018-10-16T01:23:46.337Z,7.83
2018-10-16T01:24:46.376Z,7.79
2018-10-16T01:25:46.414Z,7.80
2018-10-16T01:26:46.452Z,7.79
2018-10-16T01:27:46.491Z,7.80
2018-10-16T01:28:46.530Z,7.83
2018-10-16T01:29:46.568Z,7.89
2018-10-16T01:30:46.610Z,7.79
2018-10-16T01:31:46.645Z,7.77
2018-10-16T01:32:46.684Z,7.92
2018-10-16T01:33:46.722Z,7.83
2018-10-16T01:34:46.761Z,7.83
2018-10-16T01:35:46.801Z,7.83
2018-10-16T01:36:46.839Z,7.87
2018-10-16T01:37:46.877Z,7.82
2018-10-16T01:38:46.918Z,7.74
2018-10-16T01:39:46.955Z,7.82
2018-10-16T01:40:46.994Z,7.77
2018-10-16T01:41:47.037Z,7.71
2018-10-16T01:42:47.074Z,7.71
2018-10-16T01:43:47.110Z,7.67
2018-10-16T01:44:47.148Z,7.72
2018-10-16T01:45:47.187Z,7.72
2018-10-16T01:46:47.224Z,7.83
2018-10-16T01:47:47.263Z,7.75
2018-10-16T01:48:47.304Z,7.82
2018-10-16T01:49:47.348Z,7.85
2018-10-16T01:50:47.377Z,7.83
2018-10-16T01:51:47.423Z,7.87
2018-10-16T01:52:47.456Z,7.86
2018-10-16T01:53:47.493Z,7.75
2018-10-16T01:54:47.534Z,7.71
2018-10-16T01:55:47.571Z,7.75
2018-10-16T01:56:47.609Z,7.75
2018-10-16T01:57:47.664Z,7.80
2018-10-16T01:58:47.687Z,7.74
2018-10-16T01:59:47.728Z,7.80
2018-10-16T02:00:47.764Z,7.80
2018-10-16T02:01:47.803Z,7.83
2018-10-16T02:02:47.842Z,7.74
2018-10-16T02:03:47.883Z,7.69
2018-10-16T02:04:47.918Z,7.71
2018-10-16T02:05:47.956Z,7.68
2018-10-16T02:06:47.997Z,7.63
2018-10-16T02:07:48.035Z,7.58
2018-10-16T02:08:48.073Z,7.57
2018-10-16T02:09:48.113Z,7.60
2018-10-16T02:10:48.153Z,7.55
2018-10-16T02:11:48.198Z,7.57
2018-10-16T02:12:48.226Z,7.53
2018-10-16T02:13:48.266Z,7.53
2018-10-16T02:14:48.400Z,7.46
2018-10-16T02:15:48.342Z,7.63
2018-10-16T02:16:48.382Z,7.57
2018-10-16T02:17:48.425Z,7.48
2018-10-16T02:18:48.471Z,7.49
2018-10-16T02:19:48.496Z,7.48
2018-10-16T02:20:48.535Z,7.45
2018-10-16T02:21:48.583Z,7.40
2018-10-16T02:22:48.610Z,7.45
2018-10-16T02:23:48.650Z,7.45
2018-10-16T02:24:48.688Z,7.34
2018-10-16T02:25:48.726Z,7.35
2018-10-16T02:26:48.764Z,7.34
2018-10-16T02:27:48.813Z,7.28
2018-10-16T02:28:48.841Z,7.31
2018-10-16T02:29:48.880Z,7.35
2018-10-16T02:30:48.919Z,7.31
2018-10-16T02:31:48.959Z,7.34
2018-10-16T02:32:49.007Z,7.31
2018-10-16T02:33:49.036Z,7.25
2018-10-16T02:34:49.072Z,7.28
2018-10-16T02:35:49.115Z,7.23
2018-10-16T02:36:49.155Z,7.28
2018-10-16T02:37:49.200Z,7.23
2018-10-16T02:38:49.227Z,7.35
2018-10-16T02:39:49.280Z,7.30
2018-10-16T02:40:49.309Z,7.27
2018-10-16T02:41:49.341Z,7.30
2018-10-16T02:42:49.393Z,7.20
2018-10-16T02:43:49.430Z,7.27
2018-10-16T02:44:49.464Z,7.24
2018-10-16T02:45:49.498Z,7.27
2018-10-16T02:46:49.538Z,7.24
2018-10-16T02:47:49.574Z,7.30
2018-10-16T02:48:49.614Z,7.15
2018-10-16T02:49:49.649Z,7.27
2018-10-16T02:50:49.691Z,7.12
2018-10-16T02:51:49.727Z,7.21
2018-10-16T02:52:49.765Z,7.17
2018-10-16T02:53:49.802Z,7.21
2018-10-16T02:54:49.842Z,7.17
2018-10-16T02:55:49.880Z,7.24
2018-10-16T02:56:49.918Z,7.24
2018-10-16T02:57:49.956Z,7.20
2018-10-16T02:58:49.994Z,7.15
2018-10-16T02:59:50.035Z,7.20
2018-10-16T03:00:50.087Z,7.21
2018-10-16T03:01:50.112Z,7.20
2018-10-16T03:02:50.147Z,7.06
2018-10-16T03:03:50.186Z,7.10
2018-10-16T03:04:50.238Z,7.12
2018-10-16T03:05:50.266Z,7.12
2018-10-16T03:06:50.305Z,7.06
2018-10-16T03:07:50.342Z,7.09
2018-10-16T03:08:50.388Z,7.02
2018-10-16T03:09:50.417Z,7.06
2018-10-16T03:10:50.456Z,7.15
2018-10-16T03:11:50.493Z,7.12
2018-10-16T03:12:50.534Z,7.16
2018-10-16T03:13:50.585Z,7.20
2018-10-16T03:14:50.697Z,7.20
2018-10-16T03:15:50.651Z,7.20
2018-10-16T03:16:50.687Z,7.15
2018-10-16T03:17:50.735Z,7.16
2018-10-16T03:18:50.762Z,7.13
2018-10-16T03:19:50.813Z,7.03
2018-10-16T03:20:50.840Z,7.02
2018-10-16T03:21:50.879Z,7.16
2018-10-16T03:22:50.916Z,7.05
2018-10-16T03:23:50.954Z,6.98
2018-10-16T03:24:51.002Z,7.06
2018-10-16T03:25:51.031Z,7.05
2018-10-16T03:26:51.073Z,7.05
2018-10-16T03:27:51.108Z,7.06
2018-10-16T03:28:51.146Z,7.02
2018-10-16T03:29:51.183Z,7.03
2018-10-16T03:30:51.221Z,6.95
2018-10-16T03:31:51.261Z,6.94
2018-10-16T03:32:51.299Z,6.92
2018-10-16T03:33:51.345Z,6.92
2018-10-16T03:34:51.379Z,6.95
2018-10-16T03:35:51.419Z,6.94
2018-10-16T03:36:51.452Z,6.95
2018-10-16T03:37:51.493Z,6.95
2018-10-16T03:38:51.530Z,6.92
2018-10-16T03:39:51.568Z,6.94
2018-10-16T03:40:51.605Z,6.92
2018-10-16T03:41:51.644Z,6.88
2018-10-16T03:42:51.684Z,6.89
2018-10-16T03:43:51.723Z,6.92
2018-10-16T03:44:51.778Z,6.94
2018-10-16T03:45:51.797Z,6.91
2018-10-16T03:46:51.836Z,6.89
2018-10-16T03:47:51.877Z,6.95
2018-10-16T03:48:51.912Z,6.98
2018-10-16T03:49:51.950Z,6.84
2018-10-16T03:50:51.989Z,6.88
2018-10-16T03:51:52.027Z,6.81
2018-10-16T03:52:52.067Z,6.79
2018-10-16T03:53:52.103Z,6.81
2018-10-16T03:54:52.142Z,6.80
2018-10-16T03:55:52.188Z,6.84
2018-10-16T03:56:52.223Z,6.87
2018-10-16T03:57:52.257Z,6.80
2018-10-16T03:58:52.295Z,6.85
2018-10-16T03:59:52.339Z,6.88
2018-10-16T04:00:52.371Z,6.80
2018-10-16T04:01:52.408Z,6.85
2018-10-16T04:02:52.448Z,6.92
2018-10-16T04:03:52.485Z,6.88
2018-10-16T04:04:52.524Z,6.85
2018-10-16T04:05:52.562Z,6.92
2018-10-16T04:06:52.746Z,6.94
2018-10-16T04:07:52.639Z,6.97
2018-10-16T04:08:52.678Z,6.92
2018-10-16T04:09:52.717Z,6.91
2018-10-16T04:10:52.755Z,7.02
2018-10-16T04:11:52.793Z,6.91
2018-10-16T04:12:52.932Z,6.92
2018-10-16T04:13:52.921Z,7.09
2018-10-16T04:14:52.908Z,7.09
2018-10-16T04:15:52.947Z,7.07
2018-10-16T04:16:52.984Z,7.10
2018-10-16T04:17:53.023Z,7.06
2018-10-16T04:18:53.062Z,7.10
2018-10-16T04:19:53.099Z,7.12
2018-10-16T04:20:53.139Z,7.12
2018-10-16T04:21:53.175Z,7.15
2018-10-16T04:22:53.263Z,7.13
2018-10-16T04:23:53.252Z,7.20
2018-10-16T04:24:53.289Z,7.15
2018-10-16T04:25:53.333Z,7.12
2018-10-16T04:26:53.367Z,7.17
2018-10-16T04:27:53.407Z,7.16
2018-10-16T04:28:53.443Z,7.20
2018-10-16T04:29:53.482Z,7.27
2018-10-16T04:30:53.519Z,7.24
2018-10-16T04:31:53.557Z,7.20
2018-10-16T04:32:53.597Z,7.31
2018-10-16T04:33:53.999Z,7.39
2018-10-16T04:34:53.673Z,7.35
2018-10-16T04:35:53.711Z,7.40
2018-10-16T04:36:53.755Z,7.35
2018-10-16T04:37:53.787Z,7.43
2018-10-16T04:38:53.829Z,7.42
2018-10-16T04:39:53.865Z,7.45
2018-10-16T04:40:53.904Z,7.43
2018-10-16T04:41:53.944Z,7.42
2018-10-16T04:42:54.004Z,7.48
2018-10-16T04:43:54.083Z,7.46
2018-10-16T04:44:54.074Z,7.43
2018-10-16T04:45:54.099Z,7.48
2018-10-16T04:46:54.162Z,7.45
2018-10-16T04:47:54.172Z,7.53
2018-10-16T04:48:54.211Z,7.49
2018-10-16T04:49:54.252Z,7.39
2018-10-16T04:50:54.295Z,7.50
2018-10-16T04:51:54.347Z,7.55
2018-10-16T04:52:54.367Z,7.55
2018-10-16T04:53:54.400Z,7.48
2018-10-16T04:54:54.443Z,7.50
2018-10-16T04:55:54.479Z,7.42
2018-10-16T04:56:54.530Z,7.49
2018-10-16T04:57:54.559Z,7.49
2018-10-16T04:58:54.599Z,7.55
2018-10-16T04:59:54.639Z,7.50
2018-10-16T05:00:54.671Z,7.57
2018-10-16T05:01:54.710Z,7.55
2018-10-16T05:02:54.746Z,7.48
2018-10-16T05:03:54.847Z,7.46
2018-10-16T05:04:54.824Z,7.45
2018-10-16T05:05:54.861Z,7.55
2018-10-16T05:06:54.909Z,7.60
2018-10-16T05:07:54.941Z,7.45
2018-10-16T05:08:54.996Z,7.45
2018-10-16T05:09:55.014Z,7.45
2018-10-16T05:10:55.060Z,7.50
2018-10-16T05:11:55.377Z,7.50
2018-10-16T05:12:55.133Z,7.46
2018-10-16T05:13:55.169Z,7.48
2018-10-16T05:14:55.207Z,7.49
2018-10-16T05:15:55.247Z,7.57
2018-10-16T05:16:55.328Z,7.53
2018-10-16T05:17:55.323Z,7.58
2018-10-16T05:18:55.393Z,7.58
2018-10-16T05:19:55.399Z,7.57
2018-10-16T05:20:55.439Z,7.46
2018-10-16T05:21:55.488Z,7.45
2018-10-16T05:22:55.516Z,7.48
2018-10-16T05:23:55.559Z,7.45
2018-10-16T05:24:55.593Z,7.52
2018-10-16T05:25:55.633Z,7.46
2018-10-16T05:26:55.671Z,7.50
2018-10-16T05:27:55.710Z,7.53
2018-10-16T05:28:55.748Z,7.50
2018-10-16T05:29:55.784Z,7.48
2018-10-16T05:30:55.938Z,7.37
2018-10-16T05:31:55.861Z,7.46
2018-10-16T05:32:55.903Z,7.40
2018-10-16T05:33:55.941Z,7.52
2018-10-16T05:34:55.975Z,7.42
2018-10-16T05:35:56.016Z,7.46
2018-10-16T05:36:56.058Z,7.43
2018-10-16T05:37:56.093Z,7.43
2018-10-16T05:38:56.140Z,7.46
2018-10-16T05:39:56.173Z,7.50
2018-10-16T05:40:56.216Z,7.46
2018-10-16T05:41:56.244Z,7.52
2018-10-16T05:42:56.283Z,7.50
2018-10-16T05:43:56.326Z,7.43
2018-10-16T05:44:56.362Z,7.46
2018-10-16T05:45:56.402Z,7.45
2018-10-16T05:46:56.439Z,7.50
2018-10-16T05:47:56.481Z,7.57
2018-10-16T05:48:56.551Z,7.45
2018-10-16T05:49:56.554Z,7.53
2018-10-16T05:50:56.590Z,7.48
2018-10-16T05:51:56.636Z,7.48
2018-10-16T05:52:56.670Z,7.55
2018-10-16T05:53:56.708Z,7.57
2018-10-16T05:54:56.745Z,7.48
2018-10-16T05:55:56.784Z,7.53
2018-10-16T05:56:56.823Z,7.60
2018-10-16T05:57:56.863Z,7.67
2018-10-16T05:58:56.899Z,7.68
2018-10-16T05:59:56.939Z,7.64
2018-10-16T06:00:56.980Z,7.63
2018-10-16T06:01:57.017Z,7.71
2018-10-16T06:02:57.056Z,7.68
2018-10-16T06:03:57.092Z,7.69
2018-10-16T06:04:57.130Z,7.86
2018-10-16T06:05:57.168Z,7.85
2018-10-16T06:06:57.208Z,7.82
2018-10-16T06:07:57.345Z,7.90
2018-10-16T06:08:57.283Z,7.92
2018-10-16T06:09:57.322Z,8.00
2018-10-16T06:10:57.483Z,8.00
2018-10-16T06:11:57.398Z,8.01
2018-10-16T06:12:57.438Z,8.02
2018-10-16T06:13:57.476Z,8.07
2018-10-16T06:14:57.514Z,8.12
2018-10-16T06:15:57.586Z,8.18
2018-10-16T06:16:57.593Z,8.22
2018-10-16T06:17:57.638Z,8.11
2018-10-16T06:18:57.669Z,8.20
2018-10-16T06:19:57.708Z,8.34
2018-10-16T06:20:57.748Z,8.37
2018-10-16T06:21:57.784Z,8.34
2018-10-16T06:22:57.824Z,8.45
2018-10-16T06:23:57.863Z,8.50
2018-10-16T06:24:57.901Z,8.50
2018-10-16T06:25:57.940Z,8.58
2018-10-16T06:26:57.977Z,8.66
2018-10-16T06:27:58.017Z,8.70
2018-10-16T06:28:58.059Z,8.65
2018-10-16T06:29:58.094Z,8.77
2018-10-16T06:30:58.132Z,8.81
2018-10-16T06:31:58.229Z,8.79
2018-10-16T06:32:58.209Z,8.89
2018-10-16T06:33:58.248Z,8.79
2018-10-16T06:34:58.288Z,8.87
2018-10-16T06:35:58.330Z,8.86
2018-10-16T06:36:58.367Z,8.96
2018-10-16T06:37:58.410Z,8.95
2018-10-16T06:38:58.494Z,8.89
2018-10-16T06:39:58.484Z,8.91
2018-10-16T06:40:58.757Z,8.96
2018-10-16T06:41:58.560Z,8.99
2018-10-16T06:42:58.612Z,8.98
2018-10-16T06:43:58.674Z,9.05
2018-10-16T06:44:58.683Z,9.02
2018-10-16T06:45:58.723Z,9.14
2018-10-16T06:46:58.769Z,9.18
2018-10-16T06:47:58.930Z,9.21
2018-10-16T06:48:59.020Z,9.24
2018-10-16T06:49:58.873Z,9.18
2018-10-16T06:50:58.917Z,9.28
2018-10-16T06:51:58.953Z,9.21
2018-10-16T06:52:58.992Z,9.39
2018-10-16T06:53:59.040Z,9.40
2018-10-16T06:54:59.106Z,9.50
2018-10-16T06:55:59.110Z,9.53
2018-10-16T06:56:59.149Z,9.57
2018-10-16T06:57:59.189Z,9.66
2018-10-16T06:58:59.227Z,9.68
2018-10-16T06:59:59.313Z,9.60
2018-10-16T07:00:59.310Z,9.76
2018-10-16T07:01:59.344Z,9.76
2018-10-16T07:02:59.384Z,9.78
2018-10-16T07:03:59.422Z,9.87
2018-10-16T07:04:59.462Z,9.84
2018-10-16T07:05:59.500Z,9.94
2018-10-16T07:06:59.698Z,9.97
2018-10-16T07:07:59.581Z,10.02
2018-10-16T07:08:59.620Z,10.12
2018-10-16T07:09:59.660Z,10.15
2018-10-16T07:10:59.713Z,10.17
2018-10-16T07:11:59.738Z,10.25
2018-10-16T07:12:59.781Z,10.22
2018-10-16T07:13:59.818Z,10.26
2018-10-16T07:14:59.954Z,10.33
2018-10-16T07:15:59.898Z,10.34
2018-10-16T07:16:59.952Z,10.38
2018-10-16T07:17:59.980Z,10.44
2018-10-16T07:19:00.017Z,10.42
2018-10-16T07:20:00.056Z,10.42
2018-10-16T07:21:00.133Z,10.51
2018-10-16T07:22:00.135Z,10.45
2018-10-16T07:23:00.190Z,10.48
2018-10-16T07:24:00.275Z,10.52
2018-10-16T07:25:00.257Z,10.52
2018-10-16T07:26:00.302Z,10.53
2018-10-16T07:27:00.335Z,10.61
2018-10-16T07:28:00.384Z,10.61
2018-10-16T07:29:00.437Z,10.60
2018-10-16T07:30:00.483Z,10.59
2018-10-16T07:31:00.519Z,10.63
2018-10-16T07:32:00.533Z,10.64
2018-10-16T07:33:00.576Z,10.71
2018-10-16T07:34:00.615Z,10.70
2018-10-16T07:35:00.652Z,10.71
2018-10-16T07:36:00.713Z,10.78
2018-10-16T07:37:00.735Z,10.82
2018-10-16T07:38:00.968Z,10.73
2018-10-16T07:39:00.988Z,10.74
2018-10-16T07:40:00.856Z,10.79
2018-10-16T07:41:00.900Z,10.88
2018-10-16T07:42:00.933Z,10.74
2018-10-16T07:43:00.978Z,10.84
2018-10-16T07:44:01.013Z,10.85
2018-10-16T07:45:01.062Z,10.94
2018-10-16T07:46:01.100Z,10.99
2018-10-16T07:47:01.137Z,11.03
2018-10-16T07:48:01.182Z,11.04
2018-10-16T07:49:01.213Z,11.06
2018-10-16T07:50:01.253Z,11.14
2018-10-16T07:51:01.299Z,11.10
2018-10-16T07:52:01.339Z,11.18
2018-10-16T07:53:01.376Z,11.22
2018-10-16T07:54:01.416Z,11.21
2018-10-16T07:55:01.455Z,11.25
2018-10-16T07:56:01.499Z,11.33
2018-10-16T07:57:01.555Z,11.40
2018-10-16T07:58:01.576Z,11.51
2018-10-16T07:59:01.623Z,11.62
2018-10-16T08:00:01.655Z,11.75
2018-10-16T08:01:01.696Z,11.75
2018-10-16T08:02:01.734Z,11.75
2018-10-16T08:03:01.779Z,11.86
2018-10-16T08:04:01.814Z,11.94
2018-10-16T08:05:01.861Z,11.98
2018-10-16T08:06:01.896Z,11.94
2018-10-16T08:07:01.961Z,12.07
2018-10-16T08:08:01.987Z,12.13
2018-10-16T08:09:02.023Z,12.19
2018-10-16T08:10:02.064Z,12.28
2018-10-16T08:11:02.096Z,12.29
2018-10-16T08:12:02.139Z,12.34
2018-10-16T08:13:02.235Z,12.45
2018-10-16T08:14:02.221Z,12.41
2018-10-16T08:15:02.264Z,12.49
2018-10-16T08:16:02.301Z,12.47
2018-10-16T08:17:02.419Z,12.49
2018-10-16T08:18:02.379Z,12.50
2018-10-16T08:19:02.426Z,12.52
2018-10-16T08:20:02.474Z,12.60
2018-10-16T08:21:02.509Z,12.64
2018-10-16T08:22:02.543Z,12.60
2018-10-16T08:23:02.584Z,12.68
2018-10-16T08:24:02.625Z,12.83
2018-10-16T08:25:02.668Z,12.82
2018-10-16T08:26:02.707Z,12.83
2018-10-16T08:27:02.747Z,12.96
2018-10-16T08:28:02.789Z,12.96
2018-10-16T08:29:02.829Z,13.00
2018-10-16T08:30:02.942Z,13.05
2018-10-16T08:31:02.918Z,13.11
2018-10-16T08:32:02.955Z,13.12
2018-10-16T08:33:02.993Z,13.14
2018-10-16T08:34:03.073Z,13.25
2018-10-16T08:35:03.079Z,13.25
2018-10-16T08:36:03.209Z,13.28
2018-10-16T08:37:03.162Z,13.26
2018-10-16T08:38:03.200Z,13.32
2018-10-16T08:39:03.260Z,13.33
2018-10-16T08:40:03.391Z,13.41
2018-10-16T08:41:03.323Z,13.44
2018-10-16T08:42:03.528Z,13.49
2018-10-16T08:43:03.403Z,13.49
2018-10-16T08:44:03.444Z,13.59
2018-10-16T08:45:03.518Z,13.55
2018-10-16T08:46:03.527Z,13.55
2018-10-16T08:47:03.569Z,13.70
2018-10-16T08:48:03.612Z,13.67
2018-10-16T08:49:03.658Z,13.73
2018-10-16T08:50:03.692Z,13.69
2018-10-16T08:51:03.734Z,13.79
2018-10-16T08:52:03.785Z,13.88
2018-10-16T08:53:03.817Z,13.82
2018-10-16T08:54:03.866Z,13.85
2018-10-16T08:55:03.989Z,13.99
2018-10-16T08:56:03.944Z,13.95
2018-10-16T08:57:03.984Z,13.91
2018-10-16T08:58:04.025Z,13.97
2018-10-16T08:59:04.067Z,14.03
2018-10-16T09:00:04.109Z,13.99
2018-10-16T09:01:04.163Z,14.09
2018-10-16T09:02:04.193Z,14.09
2018-10-16T09:03:04.231Z,14.14
2018-10-16T09:04:04.470Z,14.14
2018-10-16T09:05:04.314Z,14.15
2018-10-16T09:06:04.358Z,14.07
2018-10-16T09:07:04.403Z,14.17
2018-10-16T09:08:04.438Z,14.17
2018-10-16T09:09:04.490Z,14.12
2018-10-16T09:10:04.529Z,14.07
2018-10-16T09:11:04.564Z,14.17
2018-10-16T09:12:04.604Z,14.18
2018-10-16T09:13:04.679Z,14.20
2018-10-16T09:14:04.749Z,14.18
2018-10-16T09:15:04.729Z,14.21
2018-10-16T09:16:04.774Z,14.18
2018-10-16T09:17:04.817Z,14.20
2018-10-16T09:18:04.855Z,14.22
2018-10-16T09:19:04.898Z,14.32
2018-10-16T09:20:04.941Z,14.24
2018-10-16T09:21:04.980Z,14.37
2018-10-16T09:22:05.022Z,14.36
2018-10-16T09:23:05.064Z,14.36
2018-10-16T09:24:05.105Z,14.32
2018-10-16T09:25:05.204Z,14.43
2018-10-16T09:26:05.190Z,14.37
2018-10-16T09:27:05.231Z,14.39
2018-10-16T09:28:05.278Z,14.37
2018-10-16T09:29:05.318Z,14.40
2018-10-16T09:30:05.412Z,14.45
2018-10-16T09:31:05.492Z,14.55
2018-10-16T09:32:05.438Z,14.47
2018-10-16T09:33:05.480Z,14.57
2018-10-16T09:34:05.531Z,14.57
2018-10-16T09:35:05.562Z,14.58
2018-10-16T09:36:05.625Z,14.60
2018-10-16T09:37:05.651Z,14.68
2018-10-16T09:38:05.806Z,14.62
2018-10-16T09:39:05.731Z,14.83
2018-10-16T09:40:05.777Z,14.80
2018-10-16T09:41:05.835Z,14.84
2018-10-16T09:42:05.856Z,14.92
2018-10-16T09:43:05.894Z,14.86
2018-10-16T09:44:05.939Z,14.86
2018-10-16T09:45:05.981Z,14.83
2018-10-16T09:46:06.021Z,14.92
2018-10-16T09:47:06.079Z,15.01
2018-10-16T09:48:06.106Z,15.01
2018-10-16T09:49:06.154Z,15.09
2018-10-16T09:50:06.406Z,14.99
2018-10-16T09:51:06.277Z,15.03
2018-10-16T09:52:06.274Z,15.03
2018-10-16T09:53:06.315Z,15.01
2018-10-16T09:54:06.355Z,14.98
2018-10-16T09:55:06.400Z,15.02
2018-10-16T09:56:06.449Z,15.03
2018-10-16T09:57:06.484Z,15.10
2018-10-16T09:58:06.519Z,15.14
2018-10-16T09:59:06.565Z,15.16
2018-10-16T10:00:06.607Z,15.20
2018-10-16T10:01:06.649Z,15.25
2018-10-16T10:02:06.690Z,15.28
2018-10-16T10:03:06.732Z,15.27
2018-10-16T10:04:06.776Z,15.28
2018-10-16T10:05:06.817Z,15.32
2018-10-16T10:06:06.858Z,15.29
2018-10-16T10:07:06.900Z,15.43
2018-10-16T10:08:06.942Z,15.53
2018-10-16T10:09:06.985Z,15.54
2018-10-16T10:10:07.026Z,15.57
2018-10-16T10:11:07.164Z,15.59
2018-10-16T10:12:07.120Z,15.62
2018-10-16T10:13:07.152Z,15.74
2018-10-16T10:14:07.201Z,15.71
2018-10-16T10:15:07.236Z,15.80
2018-10-16T10:16:07.279Z,15.89
2018-10-16T10:17:07.322Z,15.89
2018-10-16T10:18:07.363Z,15.74
2018-10-16T10:19:07.406Z,15.90
2018-10-16T10:20:07.459Z,15.94
2018-10-16T10:21:07.490Z,15.92
2018-10-16T10:22:07.534Z,15.96
2018-10-16T10:23:07.602Z,16.05
2018-10-16T10:24:07.619Z,16.15
2018-10-16T10:25:07.715Z,16.28
2018-10-16T10:26:07.704Z,16.39
2018-10-16T10:27:07.746Z,16.45
2018-10-16T10:28:07.801Z,16.52
2018-10-16T10:29:07.829Z,16.68
2018-10-16T10:30:07.889Z,16.67
2018-10-16T10:31:07.916Z,16.78
2018-10-16T10:32:07.965Z,16.86
2018-10-16T10:33:08.000Z,16.89
2018-10-16T10:34:08.040Z,17.04
2018-10-16T10:35:08.143Z,17.00
2018-10-16T10:36:08.127Z,17.00
2018-10-16T10:37:08.171Z,17.04
2018-10-16T10:38:08.216Z,16.94
2018-10-16T10:39:08.269Z,16.94
2018-10-16T10:40:08.298Z,16.96
2018-10-16T10:41:08.342Z,16.94
2018-10-16T10:42:08.452Z,17.11
2018-10-16T10:43:08.425Z,17.11
2018-10-16T10:44:08.470Z,17.08
2018-10-16T10:45:08.514Z,17.22
2018-10-16T10:46:08.553Z,17.28
2018-10-16T10:47:08.607Z,17.36
2018-10-16T10:48:08.639Z,17.41
2018-10-16T10:49:08.687Z,17.48
2018-10-16T10:50:08.909Z,17.48
2018-10-16T10:51:09.126Z,17.48
2018-10-16T10:52:08.812Z,17.59
2018-10-16T10:53:08.859Z,17.70
2018-10-16T10:54:08.898Z,17.64
2018-10-16T10:55:08.942Z,17.52
2018-10-16T10:56:08.986Z,17.68
2018-10-16T10:57:09.282Z,17.64
2018-10-16T10:58:09.071Z,17.52
2018-10-16T10:59:09.113Z,17.41
2018-10-16T11:00:09.158Z,17.52
2018-10-16T11:01:09.199Z,17.49
2018-10-16T11:02:09.250Z,17.72
2018-10-16T11:03:09.303Z,17.70
2018-10-16T11:04:09.328Z,17.77
2018-10-16T11:05:09.372Z,17.93
2018-10-16T11:06:09.423Z,17.93
2018-10-16T11:07:09.463Z,17.92
2018-10-16T11:08:09.609Z,18.00
2018-10-16T11:09:09.677Z,18.07
2018-10-16T11:10:09.588Z,18.12
2018-10-16T11:11:09.634Z,18.18
2018-10-16T11:12:09.676Z,18.18
2018-10-16T11:13:09.719Z,18.27
2018-10-16T11:14:09.761Z,18.23
2018-10-16T11:15:09.916Z,18.25
2018-10-16T11:16:09.851Z,18.23
2018-10-16T11:17:09.893Z,18.26
2018-10-16T11:18:09.939Z,18.30
2018-10-16T11:19:09.986Z,18.30
2018-10-16T11:20:10.024Z,18.39
2018-10-16T11:21:10.139Z,18.54
2018-10-16T11:22:10.109Z,18.50
2018-10-16T11:23:10.161Z,18.57
2018-10-16T11:24:10.195Z,18.57
2018-10-16T11:25:10.244Z,18.63
2018-10-16T11:26:10.283Z,18.73
2018-10-16T11:27:10.377Z,18.65
2018-10-16T11:28:10.371Z,18.70
2018-10-16T11:29:10.414Z,18.80
2018-10-16T11:30:10.547Z,18.81
2018-10-16T11:31:10.580Z,18.92
2018-10-16T11:32:10.548Z,18.87
2018-10-16T11:33:10.659Z,18.92
2018-10-16T11:34:10.633Z,18.94
2018-10-16T11:35:10.677Z,18.92
2018-10-16T11:36:10.726Z,19.04
2018-10-16T11:37:10.879Z,19.06
2018-10-16T11:38:10.810Z,19.08
2018-10-16T11:39:10.881Z,19.13
2018-10-16T11:40:10.900Z,19.13
2018-10-16T11:41:10.941Z,19.19
2018-10-16T11:42:10.983Z,19.18
2018-10-16T11:43:11.032Z,19.19
2018-10-16T11:44:11.073Z,19.26
2018-10-16T11:45:11.131Z,19.32
2018-10-16T11:46:11.159Z,19.29
2018-10-16T11:47:11.213Z,19.29
2018-10-16T11:48:11.304Z,19.25
2018-10-16T11:49:11.290Z,19.29
2018-10-16T11:50:11.395Z,19.41
2018-10-16T11:51:11.378Z,19.37
2018-10-16T11:52:11.438Z,19.31
2018-10-16T11:53:11.465Z,19.32
2018-10-16T11:54:11.511Z,19.33
2018-10-16T11:55:11.560Z,19.26
2018-10-16T11:56:11.659Z,19.26
2018-10-16T11:57:11.643Z,19.23
2018-10-16T11:58:11.693Z,19.21
2018-10-16T11:59:11.823Z,19.23
2018-10-16T12:00:11.775Z,19.18
2018-10-16T12:01:11.818Z,19.18
2018-10-16T12:02:11.916Z,19.07
2018-10-16T12:03:11.907Z,19.02
2018-10-16T12:04:11.950Z,18.99
2018-10-16T12:05:11.994Z,18.94
2018-10-16T12:06:12.131Z,18.94
2018-10-16T12:07:12.176Z,18.90
2018-10-16T12:08:12.212Z,18.85
2018-10-16T12:09:12.177Z,18.82
2018-10-16T12:10:12.389Z,18.87
2018-10-16T12:11:12.377Z,18.88
2018-10-16T12:12:12.304Z,18.91
2018-10-16T12:13:12.416Z,18.85
2018-10-16T12:14:12.433Z,18.87
2018-10-16T12:15:12.435Z,18.85
2018-10-16T12:16:12.481Z,18.82
2018-10-16T12:17:12.520Z,18.82
2018-10-16T12:18:12.564Z,18.87
2018-10-16T12:19:12.680Z,18.91
2018-10-16T12:20:12.665Z,18.82
2018-10-16T12:21:12.719Z,18.95
2018-10-16T12:22:12.757Z,18.94
2018-10-16T12:23:12.790Z,18.91
2018-10-16T12:24:12.892Z,18.92
2018-10-16T12:25:13.022Z,18.88
2018-10-16T12:26:12.919Z,18.87
2018-10-16T12:27:13.063Z,18.91
2018-10-16T12:28:13.012Z,18.84
2018-10-16T12:29:13.063Z,18.85
2018-10-16T12:30:13.090Z,18.70
2018-10-16T12:31:13.180Z,18.75
2018-10-16T12:32:13.261Z,18.66
2018-10-16T12:33:13.390Z,18.69
2018-10-16T12:34:13.265Z,18.69
2018-10-16T12:35:13.407Z,18.75
2018-10-16T12:36:13.356Z,18.82
2018-10-16T12:37:13.528Z,18.85
2018-10-16T12:38:13.471Z,18.92
2018-10-16T12:39:13.553Z,18.92
2018-10-16T12:40:13.583Z,18.82
2018-10-16T12:41:13.614Z,18.92
2018-10-16T12:42:13.810Z,18.92
2018-10-16T12:43:13.699Z,18.98
2018-10-16T12:44:13.706Z,18.94
2018-10-16T12:45:13.876Z,19.06
2018-10-16T12:46:13.859Z,19.11
2018-10-16T12:47:13.939Z,19.07
2018-10-16T12:48:13.977Z,19.21
2018-10-16T12:49:14.163Z,19.06
2018-10-16T12:50:14.012Z,19.13
2018-10-16T12:51:14.098Z,19.11
2018-10-16T12:52:14.071Z,19.08
2018-10-16T12:53:14.257Z,19.16
2018-10-16T12:54:14.347Z,19.18
2018-10-16T12:55:14.192Z,19.18
2018-10-16T12:56:14.273Z,19.04
2018-10-16T12:57:14.306Z,19.08
2018-10-16T12:58:14.314Z,19.16
2018-10-16T12:59:14.447Z,19.18
2018-10-16T13:00:14.485Z,19.10
2018-10-16T13:01:14.447Z,19.07
2018-10-16T13:02:14.543Z,19.21
2018-10-16T13:03:14.584Z,19.10
2018-10-16T13:04:14.586Z,19.11
2018-10-16T13:05:14.679Z,19.04
2018-10-16T13:06:14.675Z,19.02
2018-10-16T13:07:14.712Z,19.06